sensor_id;sensor_type;location;lat;lon;timestamp;P1;durP1;ratioP1;P2;durP2;ratioP2
50976;SDS011;36992;48.200;12.418;2023-04-16T00:02:27;2.53;;;0.98;;
50976;SDS011;36992;48.200;12.418;2023-04-16T00:04:53;2.05;;;0.88;;
50976;SDS011;36992;48.200;12.418;2023-04-16T00:07:20;2.78;;;1.05;;
50976;SDS011;36992;48.200;12.418;2023-04-16T00:09:46;1.40;;;0.60;;
50976;SDS011;36992;48.200;12.418;2023-04-16T00:12:13;3.33;;;1.05;;
50976;SDS011;36992;48.200;12.418;2023-04-16T00:14:41;3.03;;;1.13;;
50976;SDS011;36992;48.200;12.418;2023-04-16T00:17:07;2.05;;;0.98;;
50976;SDS011;36992;48.200;12.418;2023-04-16T00:19:34;2.28;;;1.00;;
50976;SDS011;36992;48.200;12.418;2023-04-16T00:22:01;1.63;;;0.73;;
50976;SDS011;36992;48.200;12.418;2023-04-16T00:24:27;1.60;;;0.70;;
50976;SDS011;36992;48.200;12.418;2023-04-16T00:26:54;2.50;;;0.82;;
50976;SDS011;36992;48.200;12.418;2023-04-16T00:29:21;2.13;;;0.98;;
50976;SDS011;36992;48.200;12.418;2023-04-16T00:31:48;1.50;;;0.70;;
50976;SDS011;36992;48.200;12.418;2023-04-16T00:34:15;1.80;;;0.77;;
50976;SDS011;36992;48.200;12.418;2023-04-16T00:36:41;1.50;;;0.60;;
50976;SDS011;36992;48.200;12.418;2023-04-16T00:39:08;1.75;;;0.47;;
50976;SDS011;36992;48.200;12.418;2023-04-16T00:41:34;1.30;;;0.60;;
50976;SDS011;36992;48.200;12.418;2023-04-16T00:44:02;1.42;;;0.40;;
50976;SDS011;36992;48.200;12.418;2023-04-16T00:46:29;1.00;;;0.40;;
50976;SDS011;36992;48.200;12.418;2023-04-16T00:48:58;1.33;;;0.45;;
50976;SDS011;36992;48.200;12.418;2023-04-16T00:51:26;1.45;;;0.43;;
50976;SDS011;36992;48.200;12.418;2023-04-16T00:53:52;1.55;;;0.60;;
50976;SDS011;36992;48.200;12.418;2023-04-16T00:56:19;1.00;;;0.30;;
50976;SDS011;36992;48.200;12.418;2023-04-16T00:58:48;0.95;;;0.35;;
50976;SDS011;36992;48.200;12.418;2023-04-16T01:01:14;0.98;;;0.50;;
50976;SDS011;36992;48.200;12.418;2023-04-16T01:03:42;1.13;;;0.43;;
50976;SDS011;36992;48.200;12.418;2023-04-16T01:06:11;1.00;;;0.38;;
50976;SDS011;36992;48.200;12.418;2023-04-16T01:08:38;0.75;;;0.30;;
50976;SDS011;36992;48.200;12.418;2023-04-16T01:11:05;1.73;;;0.80;;
50976;SDS011;36992;48.200;12.418;2023-04-16T01:13:32;1.67;;;0.50;;
50976;SDS011;36992;48.200;12.418;2023-04-16T01:15:59;1.10;;;0.40;;
50976;SDS011;36992;48.200;12.418;2023-04-16T01:18:26;1.17;;;0.40;;
50976;SDS011;36992;48.200;12.418;2023-04-16T01:20:54;0.80;;;0.30;;
50976;SDS011;36992;48.200;12.418;2023-04-16T01:23:20;2.35;;;0.70;;
50976;SDS011;36992;48.200;12.418;2023-04-16T01:25:47;1.67;;;0.40;;
50976;SDS011;36992;48.200;12.418;2023-04-16T01:28:13;0.63;;;0.30;;
50976;SDS011;36992;48.200;12.418;2023-04-16T01:30:40;0.98;;;0.30;;
50976;SDS011;36992;48.200;12.418;2023-04-16T01:33:07;0.55;;;0.20;;
50976;SDS011;36992;48.200;12.418;2023-04-16T01:35:33;0.80;;;0.40;;
50976;SDS011;36992;48.200;12.418;2023-04-16T01:38:01;0.88;;;0.40;;
50976;SDS011;36992;48.200;12.418;2023-04-16T01:40:28;0.90;;;0.32;;
50976;SDS011;36992;48.200;12.418;2023-04-16T01:42:55;0.82;;;0.40;;
50976;SDS011;36992;48.200;12.418;2023-04-16T01:45:21;0.70;;;0.30;;
50976;SDS011;36992;48.200;12.418;2023-04-16T01:47:48;0.60;;;0.35;;
50976;SDS011;36992;48.200;12.418;2023-04-16T01:50:15;0.70;;;0.40;;
50976;SDS011;36992;48.200;12.418;2023-04-16T01:52:42;0.80;;;0.40;;
50976;SDS011;36992;48.200;12.418;2023-04-16T01:55:10;1.08;;;0.22;;
50976;SDS011;36992;48.200;12.418;2023-04-16T01:57:37;1.02;;;0.38;;
50976;SDS011;36992;48.200;12.418;2023-04-16T02:00:04;0.65;;;0.25;;
50976;SDS011;36992;48.200;12.418;2023-04-16T02:02:33;1.05;;;0.30;;
50976;SDS011;36992;48.200;12.418;2023-04-16T02:05:00;0.77;;;0.20;;
50976;SDS011;36992;48.200;12.418;2023-04-16T02:07:27;2.50;;;0.40;;
50976;SDS011;36992;48.200;12.418;2023-04-16T02:09:55;1.13;;;0.35;;
50976;SDS011;36992;48.200;12.418;2023-04-16T02:12:23;1.02;;;0.40;;
50976;SDS011;36992;48.200;12.418;2023-04-16T02:14:50;0.68;;;0.40;;
50976;SDS011;36992;48.200;12.418;2023-04-16T02:17:17;0.75;;;0.40;;
50976;SDS011;36992;48.200;12.418;2023-04-16T02:19:43;1.25;;;0.40;;
50976;SDS011;36992;48.200;12.418;2023-04-16T02:22:10;1.40;;;0.70;;
50976;SDS011;36992;48.200;12.418;2023-04-16T02:24:36;0.93;;;0.50;;
50976;SDS011;36992;48.200;12.418;2023-04-16T02:27:03;1.48;;;0.60;;
50976;SDS011;36992;48.200;12.418;2023-04-16T02:29:31;1.77;;;0.75;;
50976;SDS011;36992;48.200;12.418;2023-04-16T02:31:57;1.05;;;0.45;;
50976;SDS011;36992;48.200;12.418;2023-04-16T02:34:24;1.83;;;0.70;;
50976;SDS011;36992;48.200;12.418;2023-04-16T02:36:51;1.33;;;0.70;;
50976;SDS011;36992;48.200;12.418;2023-04-16T02:39:18;1.90;;;1.00;;
50976;SDS011;36992;48.200;12.418;2023-04-16T02:41:44;1.75;;;0.85;;
50976;SDS011;36992;48.200;12.418;2023-04-16T02:44:11;1.55;;;0.60;;
50976;SDS011;36992;48.200;12.418;2023-04-16T02:46:39;1.23;;;0.52;;
50976;SDS011;36992;48.200;12.418;2023-04-16T02:49:05;1.45;;;0.65;;
50976;SDS011;36992;48.200;12.418;2023-04-16T02:51:32;2.85;;;0.95;;
50976;SDS011;36992;48.200;12.418;2023-04-16T02:53:58;1.80;;;0.90;;
50976;SDS011;36992;48.200;12.418;2023-04-16T02:56:27;1.70;;;0.90;;
50976;SDS011;36992;48.200;12.418;2023-04-16T02:58:53;2.55;;;1.40;;
50976;SDS011;36992;48.200;12.418;2023-04-16T03:01:20;1.77;;;0.77;;
50976;SDS011;36992;48.200;12.418;2023-04-16T03:03:48;4.70;;;1.20;;
50976;SDS011;36992;48.200;12.418;2023-04-16T03:06:14;2.25;;;1.10;;
50976;SDS011;36992;48.200;12.418;2023-04-16T03:08:41;2.03;;;1.00;;
50976;SDS011;36992;48.200;12.418;2023-04-16T03:11:07;1.83;;;0.93;;
50976;SDS011;36992;48.200;12.418;2023-04-16T03:13:34;2.50;;;1.10;;
50976;SDS011;36992;48.200;12.418;2023-04-16T03:16:00;2.30;;;0.93;;
50976;SDS011;36992;48.200;12.418;2023-04-16T03:18:27;1.13;;;0.57;;
50976;SDS011;36992;48.200;12.418;2023-04-16T03:20:55;1.85;;;0.90;;
50976;SDS011;36992;48.200;12.418;2023-04-16T03:23:21;1.98;;;1.08;;
50976;SDS011;36992;48.200;12.418;2023-04-16T03:25:48;2.05;;;0.90;;
50976;SDS011;36992;48.200;12.418;2023-04-16T03:28:14;2.05;;;0.90;;
50976;SDS011;36992;48.200;12.418;2023-04-16T03:30:41;2.30;;;1.10;;
50976;SDS011;36992;48.200;12.418;2023-04-16T03:33:07;1.98;;;1.20;;
50976;SDS011;36992;48.200;12.418;2023-04-16T03:35:34;2.20;;;0.85;;
50976;SDS011;36992;48.200;12.418;2023-04-16T03:38:02;2.72;;;1.20;;
50976;SDS011;36992;48.200;12.418;2023-04-16T03:40:28;2.08;;;1.02;;
50976;SDS011;36992;48.200;12.418;2023-04-16T03:42:55;2.75;;;1.58;;
50976;SDS011;36992;48.200;12.418;2023-04-16T03:45:21;2.42;;;1.23;;
50976;SDS011;36992;48.200;12.418;2023-04-16T03:47:48;2.08;;;1.08;;
50976;SDS011;36992;48.200;12.418;2023-04-16T03:50:16;2.78;;;1.30;;
50976;SDS011;36992;48.200;12.418;2023-04-16T03:52:43;2.58;;;1.17;;
50976;SDS011;36992;48.200;12.418;2023-04-16T03:55:12;1.80;;;0.90;;
50976;SDS011;36992;48.200;12.418;2023-04-16T03:57:39;2.05;;;0.70;;
50976;SDS011;36992;48.200;12.418;2023-04-16T04:00:06;2.10;;;1.10;;
50976;SDS011;36992;48.200;12.418;2023-04-16T04:02:33;2.90;;;0.68;;
50976;SDS011;36992;48.200;12.418;2023-04-16T04:05:00;2.20;;;0.80;;
50976;SDS011;36992;48.200;12.418;2023-04-16T04:07:26;1.55;;;0.77;;
50976;SDS011;36992;48.200;12.418;2023-04-16T04:09:53;2.85;;;0.80;;
50976;SDS011;36992;48.200;12.418;2023-04-16T04:12:21;1.70;;;0.90;;
50976;SDS011;36992;48.200;12.418;2023-04-16T04:14:47;1.85;;;0.85;;
50976;SDS011;36992;48.200;12.418;2023-04-16T04:17:14;2.22;;;0.77;;
50976;SDS011;36992;48.200;12.418;2023-04-16T04:19:40;1.60;;;0.77;;
50976;SDS011;36992;48.200;12.418;2023-04-16T04:22:07;1.90;;;0.70;;
50976;SDS011;36992;48.200;12.418;2023-04-16T04:24:33;1.25;;;0.60;;
50976;SDS011;36992;48.200;12.418;2023-04-16T04:27:00;0.98;;;0.50;;
50976;SDS011;36992;48.200;12.418;2023-04-16T04:29:29;1.80;;;0.70;;
50976;SDS011;36992;48.200;12.418;2023-04-16T04:31:55;1.30;;;0.60;;
50976;SDS011;36992;48.200;12.418;2023-04-16T04:34:23;1.85;;;1.08;;
50976;SDS011;36992;48.200;12.418;2023-04-16T04:36:49;1.65;;;0.70;;
50976;SDS011;36992;48.200;12.418;2023-04-16T04:39:16;1.33;;;0.70;;
50976;SDS011;36992;48.200;12.418;2023-04-16T04:41:44;1.70;;;1.00;;
50976;SDS011;36992;48.200;12.418;2023-04-16T04:44:11;1.52;;;0.85;;
50976;SDS011;36992;48.200;12.418;2023-04-16T04:46:39;2.67;;;0.60;;
50976;SDS011;36992;48.200;12.418;2023-04-16T04:49:06;1.98;;;1.02;;
50976;SDS011;36992;48.200;12.418;2023-04-16T04:51:32;1.67;;;0.80;;
50976;SDS011;36992;48.200;12.418;2023-04-16T04:53:59;1.67;;;0.85;;
50976;SDS011;36992;48.200;12.418;2023-04-16T04:56:26;2.08;;;0.80;;
50976;SDS011;36992;48.200;12.418;2023-04-16T04:58:53;2.13;;;1.10;;
50976;SDS011;36992;48.200;12.418;2023-04-16T05:01:20;1.65;;;0.90;;
50976;SDS011;36992;48.200;12.418;2023-04-16T05:03:48;3.38;;;1.30;;
50976;SDS011;36992;48.200;12.418;2023-04-16T05:06:14;2.17;;;0.85;;
50976;SDS011;36992;48.200;12.418;2023-04-16T05:08:41;1.33;;;0.70;;
50976;SDS011;36992;48.200;12.418;2023-04-16T05:11:08;2.05;;;0.93;;
50976;SDS011;36992;48.200;12.418;2023-04-16T05:13:34;1.60;;;0.70;;
50976;SDS011;36992;48.200;12.418;2023-04-16T05:16:01;1.23;;;0.60;;
50976;SDS011;36992;48.200;12.418;2023-04-16T05:18:27;2.13;;;1.15;;
50976;SDS011;36992;48.200;12.418;2023-04-16T05:20:55;2.90;;;1.35;;
50976;SDS011;36992;48.200;12.418;2023-04-16T05:23:22;2.65;;;1.45;;
50976;SDS011;36992;48.200;12.418;2023-04-16T05:25:49;2.20;;;0.90;;
50976;SDS011;36992;48.200;12.418;2023-04-16T05:28:15;1.40;;;0.73;;
50976;SDS011;36992;48.200;12.418;2023-04-16T05:30:42;1.70;;;0.93;;
50976;SDS011;36992;48.200;12.418;2023-04-16T05:33:08;1.88;;;0.90;;
50976;SDS011;36992;48.200;12.418;2023-04-16T05:35:35;1.85;;;0.93;;
50976;SDS011;36992;48.200;12.418;2023-04-16T05:38:03;1.30;;;0.70;;
50976;SDS011;36992;48.200;12.418;2023-04-16T05:40:30;1.63;;;0.82;;
50976;SDS011;36992;48.200;12.418;2023-04-16T05:42:56;2.05;;;0.90;;
50976;SDS011;36992;48.200;12.418;2023-04-16T05:45:23;1.80;;;0.93;;
50976;SDS011;36992;48.200;12.418;2023-04-16T05:47:49;2.20;;;0.90;;
50976;SDS011;36992;48.200;12.418;2023-04-16T05:50:16;2.92;;;1.10;;
50976;SDS011;36992;48.200;12.418;2023-04-16T05:52:42;1.42;;;0.68;;
50976;SDS011;36992;48.200;12.418;2023-04-16T05:55:10;1.85;;;1.42;;
50976;SDS011;36992;48.200;12.418;2023-04-16T05:57:37;1.20;;;0.52;;
50976;SDS011;36992;48.200;12.418;2023-04-16T06:00:04;1.58;;;0.70;;
50976;SDS011;36992;48.200;12.418;2023-04-16T06:02:31;1.75;;;0.60;;
50976;SDS011;36992;48.200;12.418;2023-04-16T06:04:58;1.55;;;0.63;;
50976;SDS011;36992;48.200;12.418;2023-04-16T06:07:25;2.97;;;0.80;;
50976;SDS011;36992;48.200;12.418;2023-04-16T06:09:51;1.25;;;0.63;;
50976;SDS011;36992;48.200;12.418;2023-04-16T06:12:19;1.00;;;0.50;;
50976;SDS011;36992;48.200;12.418;2023-04-16T06:14:46;1.63;;;0.55;;
50976;SDS011;36992;48.200;12.418;2023-04-16T06:17:12;1.80;;;0.60;;
50976;SDS011;36992;48.200;12.418;2023-04-16T06:19:39;1.90;;;0.90;;
50976;SDS011;36992;48.200;12.418;2023-04-16T06:22:06;2.22;;;0.70;;
50976;SDS011;36992;48.200;12.418;2023-04-16T06:24:35;2.10;;;0.95;;
50976;SDS011;36992;48.200;12.418;2023-04-16T06:27:02;3.33;;;1.30;;
50976;SDS011;36992;48.200;12.418;2023-04-16T06:29:30;2.28;;;1.02;;
50976;SDS011;36992;48.200;12.418;2023-04-16T06:31:56;2.30;;;1.17;;
50976;SDS011;36992;48.200;12.418;2023-04-16T06:34:23;1.38;;;0.57;;
50976;SDS011;36992;48.200;12.418;2023-04-16T06:36:50;0.98;;;0.50;;
50976;SDS011;36992;48.200;12.418;2023-04-16T06:39:17;2.10;;;0.60;;
50976;SDS011;36992;48.200;12.418;2023-04-16T06:41:48;1.67;;;0.60;;
50976;SDS011;36992;48.200;12.418;2023-04-16T06:44:15;1.25;;;0.63;;
50976;SDS011;36992;48.200;12.418;2023-04-16T06:46:43;1.80;;;0.40;;
50976;SDS011;36992;48.200;12.418;2023-04-16T06:49:09;1.13;;;0.60;;
50976;SDS011;36992;48.200;12.418;2023-04-16T06:51:36;1.52;;;0.85;;
50976;SDS011;36992;48.200;12.418;2023-04-16T06:54:02;1.10;;;0.63;;
50976;SDS011;36992;48.200;12.418;2023-04-16T06:56:29;1.40;;;0.60;;
50976;SDS011;36992;48.200;12.418;2023-04-16T06:58:56;1.20;;;0.60;;
50976;SDS011;36992;48.200;12.418;2023-04-16T07:01:24;1.27;;;0.55;;
50976;SDS011;36992;48.200;12.418;2023-04-16T07:03:52;1.20;;;0.50;;
50976;SDS011;36992;48.200;12.418;2023-04-16T07:06:19;1.30;;;0.50;;
50976;SDS011;36992;48.200;12.418;2023-04-16T07:08:46;1.35;;;0.50;;
50976;SDS011;36992;48.200;12.418;2023-04-16T07:11:12;1.20;;;0.50;;
50976;SDS011;36992;48.200;12.418;2023-04-16T07:13:39;0.98;;;0.50;;
50976;SDS011;36992;48.200;12.418;2023-04-16T07:16:05;1.08;;;0.40;;
50976;SDS011;36992;48.200;12.418;2023-04-16T07:18:32;1.17;;;0.50;;
50976;SDS011;36992;48.200;12.418;2023-04-16T07:21:00;0.90;;;0.40;;
50976;SDS011;36992;48.200;12.418;2023-04-16T07:23:27;2.78;;;0.52;;
50976;SDS011;36992;48.200;12.418;2023-04-16T07:25:53;0.70;;;0.20;;
50976;SDS011;36992;48.200;12.418;2023-04-16T07:28:20;1.23;;;0.60;;
50976;SDS011;36992;48.200;12.418;2023-04-16T07:30:48;1.27;;;0.40;;
50976;SDS011;36992;48.200;12.418;2023-04-16T07:33:15;0.90;;;0.32;;
50976;SDS011;36992;48.200;12.418;2023-04-16T07:35:41;0.70;;;0.30;;
50976;SDS011;36992;48.200;12.418;2023-04-16T07:38:10;0.80;;;0.40;;
50976;SDS011;36992;48.200;12.418;2023-04-16T07:40:37;0.90;;;0.40;;
50976;SDS011;36992;48.200;12.418;2023-04-16T07:43:03;1.00;;;0.47;;
50976;SDS011;36992;48.200;12.418;2023-04-16T07:45:30;0.80;;;0.30;;
50976;SDS011;36992;48.200;12.418;2023-04-16T07:47:56;1.13;;;0.40;;
50976;SDS011;36992;48.200;12.418;2023-04-16T07:50:23;0.75;;;0.30;;
50976;SDS011;36992;48.200;12.418;2023-04-16T07:52:50;0.80;;;0.30;;
50976;SDS011;36992;48.200;12.418;2023-04-16T07:55:18;0.88;;;0.30;;
50976;SDS011;36992;48.200;12.418;2023-04-16T07:57:45;0.88;;;0.20;;
50976;SDS011;36992;48.200;12.418;2023-04-16T08:00:11;0.75;;;0.30;;
50976;SDS011;36992;48.200;12.418;2023-04-16T08:02:38;0.75;;;0.20;;
50976;SDS011;36992;48.200;12.418;2023-04-16T08:05:05;0.95;;;0.20;;
50976;SDS011;36992;48.200;12.418;2023-04-16T08:07:32;0.88;;;0.25;;
50976;SDS011;36992;48.200;12.418;2023-04-16T08:09:59;0.70;;;0.20;;
50976;SDS011;36992;48.200;12.418;2023-04-16T08:12:27;0.50;;;0.20;;
50976;SDS011;36992;48.200;12.418;2023-04-16T08:14:54;0.65;;;0.20;;
50976;SDS011;36992;48.200;12.418;2023-04-16T08:17:21;0.57;;;0.30;;
50976;SDS011;36992;48.200;12.418;2023-04-16T08:19:47;0.63;;;0.20;;
50976;SDS011;36992;48.200;12.418;2023-04-16T08:22:14;1.40;;;0.40;;
50976;SDS011;36992;48.200;12.418;2023-04-16T08:24:41;1.10;;;0.30;;
50976;SDS011;36992;48.200;12.418;2023-04-16T08:27:07;1.00;;;0.25;;
50976;SDS011;36992;48.200;12.418;2023-04-16T08:29:36;0.55;;;0.20;;
50976;SDS011;36992;48.200;12.418;2023-04-16T08:32:02;1.10;;;0.30;;
50976;SDS011;36992;48.200;12.418;2023-04-16T08:34:30;0.73;;;0.20;;
50976;SDS011;36992;48.200;12.418;2023-04-16T08:36:56;1.58;;;0.20;;
50976;SDS011;36992;48.200;12.418;2023-04-16T08:39:23;0.70;;;0.28;;
50976;SDS011;36992;48.200;12.418;2023-04-16T08:41:49;1.02;;;0.25;;
50976;SDS011;36992;48.200;12.418;2023-04-16T08:44:19;0.60;;;0.20;;
50976;SDS011;36992;48.200;12.418;2023-04-16T08:46:48;0.80;;;0.20;;
50976;SDS011;36992;48.200;12.418;2023-04-16T08:49:18;1.08;;;0.20;;
50976;SDS011;36992;48.200;12.418;2023-04-16T08:51:48;0.82;;;0.20;;
50976;SDS011;36992;48.200;12.418;2023-04-16T08:54:19;0.85;;;0.20;;
50976;SDS011;36992;48.200;12.418;2023-04-16T08:56:56;1.63;;;0.20;;
50976;SDS011;36992;48.200;12.418;2023-04-16T08:59:24;0.68;;;0.20;;
50976;SDS011;36992;48.200;12.418;2023-04-16T09:01:52;0.40;;;0.17;;
50976;SDS011;36992;48.200;12.418;2023-04-16T09:04:22;0.30;;;0.10;;
50976;SDS011;36992;48.200;12.418;2023-04-16T09:06:51;1.05;;;0.30;;
50976;SDS011;36992;48.200;12.418;2023-04-16T09:09:18;0.30;;;0.10;;
50976;SDS011;36992;48.200;12.418;2023-04-16T09:11:48;0.80;;;0.20;;
50976;SDS011;36992;48.200;12.418;2023-04-16T09:14:16;0.70;;;0.20;;
50976;SDS011;36992;48.200;12.418;2023-04-16T09:16:43;0.40;;;0.08;;
50976;SDS011;36992;48.200;12.418;2023-04-16T09:19:12;0.70;;;0.20;;
50976;SDS011;36992;48.200;12.418;2023-04-16T09:21:39;0.68;;;0.10;;
50976;SDS011;36992;48.200;12.418;2023-04-16T09:24:06;0.20;;;0.10;;
50976;SDS011;36992;48.200;12.418;2023-04-16T09:26:34;0.10;;;0.10;;
50976;SDS011;36992;48.200;12.418;2023-04-16T09:29:01;0.38;;;0.00;;
50976;SDS011;36992;48.200;12.418;2023-04-16T09:31:28;0.00;;;0.00;;
50976;SDS011;36992;48.200;12.418;2023-04-16T09:34:06;0.20;;;0.10;;
50976;SDS011;36992;48.200;12.418;2023-04-16T09:36:36;0.28;;;0.10;;
50976;SDS011;36992;48.200;12.418;2023-04-16T09:39:03;0.28;;;0.10;;
50976;SDS011;36992;48.200;12.418;2023-04-16T09:41:30;0.75;;;0.20;;
50976;SDS011;36992;48.200;12.418;2023-04-16T09:44:01;0.50;;;0.17;;
50976;SDS011;36992;48.200;12.418;2023-04-16T09:46:30;0.35;;;0.10;;
50976;SDS011;36992;48.200;12.418;2023-04-16T09:49:03;0.15;;;0.10;;
50976;SDS011;36992;48.200;12.418;2023-04-16T09:51:36;0.05;;;0.00;;
50976;SDS011;36992;48.200;12.418;2023-04-16T09:54:04;0.10;;;0.00;;
50976;SDS011;36992;48.200;12.418;2023-04-16T09:56:30;0.38;;;0.10;;
50976;SDS011;36992;48.200;12.418;2023-04-16T09:58:58;0.17;;;0.00;;
50976;SDS011;36992;48.200;12.418;2023-04-16T10:01:25;0.30;;;0.10;;
50976;SDS011;36992;48.200;12.418;2023-04-16T10:03:53;0.30;;;0.13;;
50976;SDS011;36992;48.200;12.418;2023-04-16T10:06:21;0.10;;;0.00;;
50976;SDS011;36992;48.200;12.418;2023-04-16T10:08:51;0.30;;;0.10;;
50976;SDS011;36992;48.200;12.418;2023-04-16T10:11:21;0.38;;;0.00;;
50976;SDS011;36992;48.200;12.418;2023-04-16T10:13:48;0.10;;;0.00;;
50976;SDS011;36992;48.200;12.418;2023-04-16T10:16:16;0.60;;;0.20;;
50976;SDS011;36992;48.200;12.418;2023-04-16T10:18:43;0.57;;;0.10;;
50976;SDS011;36992;48.200;12.418;2023-04-16T10:21:11;0.60;;;0.10;;
50976;SDS011;36992;48.200;12.418;2023-04-16T10:23:39;0.40;;;0.10;;
50976;SDS011;36992;48.200;12.418;2023-04-16T10:26:08;0.30;;;0.10;;
50976;SDS011;36992;48.200;12.418;2023-04-16T10:28:35;2.50;;;0.10;;
50976;SDS011;36992;48.200;12.418;2023-04-16T10:31:03;0.60;;;0.20;;
50976;SDS011;36992;48.200;12.418;2023-04-16T10:33:33;2.15;;;0.45;;
50976;SDS011;36992;48.200;12.418;2023-04-16T10:36:07;1.00;;;0.20;;
50976;SDS011;36992;48.200;12.418;2023-04-16T10:38:36;0.95;;;0.20;;
50976;SDS011;36992;48.200;12.418;2023-04-16T10:41:05;0.43;;;0.10;;
50976;SDS011;36992;48.200;12.418;2023-04-16T10:43:38;0.50;;;0.20;;
50976;SDS011;36992;48.200;12.418;2023-04-16T10:46:19;1.35;;;0.13;;
50976;SDS011;36992;48.200;12.418;2023-04-16T10:48:47;0.55;;;0.13;;
50976;SDS011;36992;48.200;12.418;2023-04-16T10:51:23;0.70;;;0.20;;
50976;SDS011;36992;48.200;12.418;2023-04-16T10:56:22;0.60;;;0.20;;
50976;SDS011;36992;48.200;12.418;2023-04-16T10:58:52;0.15;;;0.10;;
50976;SDS011;36992;48.200;12.418;2023-04-16T11:01:27;0.70;;;0.20;;
50976;SDS011;36992;48.200;12.418;2023-04-16T11:03:56;0.52;;;0.10;;
50976;SDS011;36992;48.200;12.418;2023-04-16T11:06:24;0.10;;;0.05;;
50976;SDS011;36992;48.200;12.418;2023-04-16T11:08:52;0.65;;;0.20;;
50976;SDS011;36992;48.200;12.418;2023-04-16T11:11:19;0.25;;;0.03;;
50976;SDS011;36992;48.200;12.418;2023-04-16T11:13:46;0.57;;;0.10;;
50976;SDS011;36992;48.200;12.418;2023-04-16T11:16:14;0.70;;;0.10;;
50976;SDS011;36992;48.200;12.418;2023-04-16T11:18:43;0.30;;;0.10;;
50976;SDS011;36992;48.200;12.418;2023-04-16T11:21:10;0.25;;;0.10;;
50976;SDS011;36992;48.200;12.418;2023-04-16T11:23:47;0.08;;;0.00;;
50976;SDS011;36992;48.200;12.418;2023-04-16T11:26:24;0.70;;;0.08;;
50976;SDS011;36992;48.200;12.418;2023-04-16T11:28:52;0.20;;;0.00;;
50976;SDS011;36992;48.200;12.418;2023-04-16T11:31:20;0.20;;;0.00;;
50976;SDS011;36992;48.200;12.418;2023-04-16T11:33:47;0.10;;;0.00;;
50976;SDS011;36992;48.200;12.418;2023-04-16T11:36:14;0.28;;;0.10;;
50976;SDS011;36992;48.200;12.418;2023-04-16T11:38:41;0.47;;;0.10;;
50976;SDS011;36992;48.200;12.418;2023-04-16T11:41:09;0.30;;;0.10;;
50976;SDS011;36992;48.200;12.418;2023-04-16T11:43:36;0.35;;;0.00;;
50976;SDS011;36992;48.200;12.418;2023-04-16T11:46:03;0.30;;;0.10;;
50976;SDS011;36992;48.200;12.418;2023-04-16T11:51:14;0.13;;;0.05;;
50976;SDS011;36992;48.200;12.418;2023-04-16T11:53:45;0.10;;;0.00;;
50976;SDS011;36992;48.200;12.418;2023-04-16T11:56:12;0.10;;;0.00;;
50976;SDS011;36992;48.200;12.418;2023-04-16T11:58:39;0.25;;;0.10;;
50976;SDS011;36992;48.200;12.418;2023-04-16T12:01:06;0.00;;;0.00;;
50976;SDS011;36992;48.200;12.418;2023-04-16T12:03:36;0.10;;;0.00;;
50976;SDS011;36992;48.200;12.418;2023-04-16T12:06:08;0.05;;;0.05;;
50976;SDS011;36992;48.200;12.418;2023-04-16T12:08:34;0.05;;;0.00;;
50976;SDS011;36992;48.200;12.418;2023-04-16T12:11:01;0.40;;;0.10;;
50976;SDS011;36992;48.200;12.418;2023-04-16T12:13:27;0.30;;;0.20;;
50976;SDS011;36992;48.200;12.418;2023-04-16T12:15:54;0.30;;;0.10;;
50976;SDS011;36992;48.200;12.418;2023-04-16T12:18:23;0.13;;;0.00;;
50976;SDS011;36992;48.200;12.418;2023-04-16T12:20:51;0.10;;;0.10;;
50976;SDS011;36992;48.200;12.418;2023-04-16T12:23:23;0.70;;;0.10;;
50976;SDS011;36992;48.200;12.418;2023-04-16T12:25:50;0.50;;;0.20;;
50976;SDS011;36992;48.200;12.418;2023-04-16T12:28:25;0.80;;;0.20;;
50976;SDS011;36992;48.200;12.418;2023-04-16T12:33:19;0.40;;;0.10;;
50976;SDS011;36992;48.200;12.418;2023-04-16T12:35:46;0.10;;;0.05;;
50976;SDS011;36992;48.200;12.418;2023-04-16T12:38:12;0.60;;;0.10;;
50976;SDS011;36992;48.200;12.418;2023-04-16T12:40:41;0.32;;;0.10;;
50976;SDS011;36992;48.200;12.418;2023-04-16T12:43:08;0.73;;;0.10;;
50976;SDS011;36992;48.200;12.418;2023-04-16T12:45:35;0.28;;;0.10;;
50976;SDS011;36992;48.200;12.418;2023-04-16T12:48:02;0.22;;;0.08;;
50976;SDS011;36992;48.200;12.418;2023-04-16T12:50:28;0.10;;;0.10;;
50976;SDS011;36992;48.200;12.418;2023-04-16T12:52:56;0.10;;;0.00;;
50976;SDS011;36992;48.200;12.418;2023-04-16T12:55:22;0.00;;;0.00;;
50976;SDS011;36992;48.200;12.418;2023-04-16T12:57:51;0.00;;;0.00;;
50976;SDS011;36992;48.200;12.418;2023-04-16T13:00:17;0.10;;;0.10;;
50976;SDS011;36992;48.200;12.418;2023-04-16T13:02:44;1.00;;;0.30;;
50976;SDS011;36992;48.200;12.418;2023-04-16T13:05:11;0.60;;;0.30;;
50976;SDS011;36992;48.200;12.418;2023-04-16T13:07:40;0.30;;;0.10;;
50976;SDS011;36992;48.200;12.418;2023-04-16T13:10:07;0.47;;;0.15;;
50976;SDS011;36992;48.200;12.418;2023-04-16T13:12:34;1.95;;;0.00;;
50976;SDS011;36992;48.200;12.418;2023-04-16T13:15:03;0.22;;;0.10;;
50976;SDS011;36992;48.200;12.418;2023-04-16T13:17:30;1.42;;;0.73;;
50976;SDS011;36992;48.200;12.418;2023-04-16T13:19:56;0.40;;;0.10;;
50976;SDS011;36992;48.200;12.418;2023-04-16T13:22:23;0.28;;;0.10;;
50976;SDS011;36992;48.200;12.418;2023-04-16T13:24:49;0.40;;;0.10;;
50976;SDS011;36992;48.200;12.418;2023-04-16T13:27:16;0.40;;;0.10;;
50976;SDS011;36992;48.200;12.418;2023-04-16T13:29:42;0.20;;;0.10;;
50976;SDS011;36992;48.200;12.418;2023-04-16T13:32:10;0.45;;;0.10;;
50976;SDS011;36992;48.200;12.418;2023-04-16T13:34:37;0.45;;;0.10;;
50976;SDS011;36992;48.200;12.418;2023-04-16T13:37:04;0.50;;;0.10;;
50976;SDS011;36992;48.200;12.418;2023-04-16T13:39:31;0.35;;;0.10;;
50976;SDS011;36992;48.200;12.418;2023-04-16T13:41:58;0.30;;;0.10;;
50976;SDS011;36992;48.200;12.418;2023-04-16T13:44:25;0.43;;;0.20;;
50976;SDS011;36992;48.200;12.418;2023-04-16T13:46:52;0.15;;;0.00;;
50976;SDS011;36992;48.200;12.418;2023-04-16T13:49:20;0.10;;;0.00;;
50976;SDS011;36992;48.200;12.418;2023-04-16T13:51:46;0.10;;;0.00;;
50976;SDS011;36992;48.200;12.418;2023-04-16T13:54:13;0.15;;;0.10;;
50976;SDS011;36992;48.200;12.418;2023-04-16T13:56:40;0.10;;;0.00;;
50976;SDS011;36992;48.200;12.418;2023-04-16T13:59:06;0.98;;;0.10;;
50976;SDS011;36992;48.200;12.418;2023-04-16T14:01:33;0.05;;;0.00;;
50976;SDS011;36992;48.200;12.418;2023-04-16T14:03:59;0.22;;;0.10;;
50976;SDS011;36992;48.200;12.418;2023-04-16T14:06:31;0.20;;;0.05;;
50976;SDS011;36992;48.200;12.418;2023-04-16T14:08:58;0.10;;;0.00;;
50976;SDS011;36992;48.200;12.418;2023-04-16T14:11:25;0.47;;;0.10;;
50976;SDS011;36992;48.200;12.418;2023-04-16T14:13:51;0.22;;;0.10;;
50976;SDS011;36992;48.200;12.418;2023-04-16T14:16:18;0.40;;;0.20;;
50976;SDS011;36992;48.200;12.418;2023-04-16T14:18:45;0.40;;;0.10;;
50976;SDS011;36992;48.200;12.418;2023-04-16T14:21:12;0.30;;;0.10;;
50976;SDS011;36992;48.200;12.418;2023-04-16T14:23:40;0.28;;;0.00;;
50976;SDS011;36992;48.200;12.418;2023-04-16T14:26:06;1.80;;;0.43;;
50976;SDS011;36992;48.200;12.418;2023-04-16T14:28:33;0.35;;;0.05;;
50976;SDS011;36992;48.200;12.418;2023-04-16T14:31:00;0.30;;;0.03;;
50976;SDS011;36992;48.200;12.418;2023-04-16T14:33:26;0.10;;;0.00;;
50976;SDS011;36992;48.200;12.418;2023-04-16T14:35:53;0.50;;;0.20;;
50976;SDS011;36992;48.200;12.418;2023-04-16T14:38:20;0.52;;;0.10;;
50976;SDS011;36992;48.200;12.418;2023-04-16T14:40:48;0.60;;;0.15;;
50976;SDS011;36992;48.200;12.418;2023-04-16T14:43:14;0.57;;;0.10;;